Time;durP1;ratioP1;P1;durP2;ratioP2;P2;SDS_P1;SDS_P2;PMS_P1;PMS_P2;Temp;Humidity;BMP_temperature;BMP_pressure;BME280_temperature;BME280_humidity;BME280_pressure;Samples;Min_cycle;Max_cycle;Signal;HPM_P1;HPM_P2
2023/12/24 00:01:11;;;;;;;0.77;0.77;;;8.90;99.90;;;;;;4966281;28;20211;-85
2023/12/24 00:03:37;;;;;;;1.95;1.85;;;8.90;99.90;;;;;;4965252;28;20187;-86
2023/12/24 00:06:03;;;;;;;0.30;0.30;;;8.90;99.90;;;;;;4964636;28;20195;-81
2023/12/24 00:08:29;;;;;;;0.68;0.50;;;8.90;99.90;;;;;;4978467;28;20990;-88
2023/12/24 00:10:58;;;;;;;1.90;0.50;;;8.90;99.90;;;;;;4986323;28;20221;-86
2023/12/24 00:13:25;;;;;;;0.50;0.40;;;8.90;99.90;;;;;;4977860;28;20503;-83
2023/12/24 00:15:51;;;;;;;0.70;0.30;;;8.90;99.90;;;;;;4955998;28;20223;-86
2023/12/24 00:18:17;;;;;;;0.63;0.50;;;9.00;99.90;;;;;;4980192;28;20681;-83
2023/12/24 00:20:42;;;;;;;0.98;0.77;;;8.90;99.90;;;;;;4985381;28;20334;-80
2023/12/24 00:23:10;;;;;;;0.50;0.50;;;8.90;99.90;;;;;;4977237;28;20254;-81
2023/12/24 00:25:36;;;;;;;0.70;0.70;;;8.90;99.90;;;;;;4986005;28;20183;-84
2023/12/24 00:28:03;;;;;;;0.95;0.60;;;8.90;99.90;;;;;;4967715;28;21187;-84
2023/12/24 00:30:28;;;;;;;0.50;0.30;;;8.90;99.90;;;;;;4989689;28;20371;-83
2023/12/24 00:32:55;;;;;;;0.40;0.30;;;8.90;99.90;;;;;;4959112;28;20448;-82
2023/12/24 00:35:24;;;;;;;0.50;0.30;;;8.90;99.90;;;;;;4957795;28;20293;-88
2023/12/24 00:37:50;;;;;;;0.50;0.40;;;8.90;99.90;;;;;;4966759;28;20183;-87
2023/12/24 00:40:17;;;;;;;0.60;0.38;;;8.80;99.90;;;;;;4970089;28;20246;-86
2023/12/24 00:42:43;;;;;;;0.80;0.75;;;8.80;99.90;;;;;;4979297;28;20671;-82
2023/12/24 00:45:10;;;;;;;0.93;0.50;;;8.80;99.90;;;;;;4976223;28;20194;-84
2023/12/24 00:47:35;;;;;;;1.20;0.60;;;8.80;99.90;;;;;;4986234;28;20314;-80
2023/12/24 00:50:01;;;;;;;0.50;0.30;;;8.80;99.90;;;;;;4987462;28;20307;-83
2023/12/24 00:52:27;;;;;;;1.53;0.50;;;8.90;99.90;;;;;;4972212;28;20199;-81
2023/12/24 00:54:52;;;;;;;1.03;0.40;;;8.90;99.90;;;;;;4979839;28;20194;-84
2023/12/24 00:57:18;;;;;;;1.30;0.57;;;8.90;99.90;;;;;;4971212;28;20215;-84
2023/12/24 00:59:43;;;;;;;0.93;0.50;;;8.90;99.90;;;;;;4998801;28;20221;-79
2023/12/24 01:02:09;;;;;;;0.40;0.40;;;8.90;99.90;;;;;;4989751;28;20446;-86
2023/12/24 01:04:35;;;;;;;0.50;0.40;;;8.90;99.90;;;;;;4993618;28;20164;-82
2023/12/24 01:07:01;;;;;;;0.55;0.45;;;8.90;99.90;;;;;;4987671;28;20279;-80
2023/12/24 01:09:27;;;;;;;0.40;0.37;;;;;;;;;;4995318;28;20709;-84
2023/12/24 01:11:53;;;;;;;0.88;0.52;;;8.90;99.90;;;;;;4980566;28;20202;-82
2023/12/24 01:14:19;;;;;;;0.50;0.50;;;9.00;99.90;;;;;;4969901;28;20199;-84
2023/12/24 01:16:45;;;;;;;0.63;0.60;;;9.00;99.90;;;;;;4995457;28;20221;-83
2023/12/24 01:19:10;;;;;;;0.60;0.43;;;9.00;99.90;;;;;;4975927;28;20202;-84
2023/12/24 01:21:36;;;;;;;0.93;0.40;;;9.00;99.90;;;;;;4996859;28;20201;-84
2023/12/24 01:24:02;;;;;;;0.90;0.90;;;9.00;99.90;;;;;;4995167;28;20191;-81
2023/12/24 01:26:27;;;;;;;1.50;0.43;;;9.00;99.90;;;;;;4991754;28;21550;-85
2023/12/24 01:28:53;;;;;;;2.00;0.80;;;9.00;99.90;;;;;;5009490;28;20973;-85
2023/12/24 01:31:20;;;;;;;0.40;0.38;;;9.00;99.90;;;;;;4972630;28;20210;-83
2023/12/24 01:33:45;;;;;;;0.50;0.50;;;9.00;99.90;;;;;;4959271;28;20197;-82
2023/12/24 01:36:11;;;;;;;0.30;0.20;;;9.00;99.90;;;;;;4987642;28;20219;-80
2023/12/24 01:38:36;;;;;;;0.40;0.40;;;9.20;99.90;;;;;;4964543;28;20246;-82
2023/12/24 01:41:02;;;;;;;1.60;0.60;;;9.00;99.90;;;;;;4960767;28;20287;-81
2023/12/24 01:43:27;;;;;;;0.40;0.30;;;9.00;99.90;;;;;;4968810;28;20187;-83
2023/12/24 01:45:53;;;;;;;0.40;0.30;;;9.00;99.90;;;;;;4989059;28;20677;-84
2023/12/24 01:48:20;;;;;;;0.33;0.30;;;9.00;99.90;;;;;;4978951;28;20202;-85
2023/12/24 01:50:47;;;;;;;4.53;0.70;;;9.10;99.90;;;;;;4959827;28;20811;-87
2023/12/24 01:53:16;;;;;;;0.40;0.30;;;9.10;99.90;;;;;;4965251;28;21507;-81
2023/12/24 01:55:42;;;;;;;0.40;0.30;;;9.00;99.90;;;;;;4949525;28;20211;-83
2023/12/24 01:58:08;;;;;;;0.60;0.40;;;9.00;99.90;;;;;;4957147;28;21720;-84
2023/12/24 02:00:33;;;;;;;0.53;0.47;;;9.00;99.90;;;;;;4957636;28;20207;-83
2023/12/24 02:03:00;;;;;;;0.40;0.33;;;9.00;99.90;;;;;;4968439;28;20443;-83
2023/12/24 02:05:29;;;;;;;0.70;0.43;;;9.10;99.90;;;;;;4967443;28;21168;-83
2023/12/24 02:07:58;;;;;;;0.40;0.40;;;9.10;99.90;;;;;;4981742;28;20214;-80
2023/12/24 02:10:24;;;;;;;1.50;0.82;;;9.10;99.90;;;;;;4970925;28;20226;-80
2023/12/24 02:12:50;;;;;;;0.97;0.47;;;9.00;99.90;;;;;;4976795;28;20278;-83
2023/12/24 02:15:15;;;;;;;4.03;0.63;;;9.10;99.90;;;;;;4951625;28;20203;-86
2023/12/24 02:17:43;;;;;;;0.40;0.40;;;9.10;99.90;;;;;;4979663;28;20211;-85
2023/12/24 02:20:10;;;;;;;0.40;0.30;;;9.10;99.90;;;;;;5009471;28;20207;-82
2023/12/24 02:22:35;;;;;;;0.30;0.20;;;9.10;99.90;;;;;;4973109;28;20193;-83
2023/12/24 02:25:02;;;;;;;0.50;0.30;;;9.10;99.90;;;;;;4986516;28;20178;-79
2023/12/24 02:27:45;;;;;;;0.60;0.40;;;9.50;99.90;;;;;;4993338;28;20590;-79
2023/12/24 02:30:18;;;;;;;0.50;0.40;;;9.20;99.90;;;;;;4989024;28;20218;-84
2023/12/24 02:32:44;;;;;;;0.50;0.50;;;9.20;99.90;;;;;;4978903;28;20186;-85
2023/12/24 02:35:11;;;;;;;0.38;0.35;;;9.20;99.90;;;;;;4962622;28;20325;-86
2023/12/24 02:37:37;;;;;;;1.10;0.50;;;9.20;99.90;;;;;;4980700;28;20244;-83
2023/12/24 02:40:03;;;;;;;0.70;0.47;;;9.10;99.90;;;;;;4987950;28;20211;-83
2023/12/24 02:42:28;;;;;;;0.53;0.30;;;9.10;99.90;;;;;;4960539;28;20190;-83
2023/12/24 02:44:54;;;;;;;1.27;0.70;;;9.10;99.90;;;;;;4976646;28;21814;-85
2023/12/24 02:47:19;;;;;;;0.40;0.40;;;9.10;99.90;;;;;;4969940;28;20194;-85
2023/12/24 02:49:45;;;;;;;0.87;0.37;;;9.00;99.90;;;;;;4974722;28;20210;-85
2023/12/24 02:52:10;;;;;;;0.50;0.47;;;8.90;99.90;;;;;;4973685;28;21881;-83
2023/12/24 02:54:36;;;;;;;0.60;0.40;;;9.00;99.90;;;;;;4992211;28;21229;-87
2023/12/24 02:57:01;;;;;;;0.50;0.50;;;8.80;99.90;;;;;;4970775;28;20203;-83
2023/12/24 02:59:28;;;;;;;0.30;0.30;;;8.70;99.90;;;;;;5003604;28;20206;-81
2023/12/24 03:01:53;;;;;;;0.40;0.30;;;8.70;99.90;;;;;;4966624;28;20273;-85
2023/12/24 03:04:19;;;;;;;0.60;0.50;;;8.60;99.90;;;;;;4981652;28;20186;-83
2023/12/24 03:06:44;;;;;;;0.50;0.30;;;8.70;99.90;;;;;;4974182;28;20183;-85
2023/12/24 03:09:10;;;;;;;0.40;0.30;;;8.60;99.90;;;;;;4978600;28;20190;-85
2023/12/24 03:11:36;;;;;;;0.50;0.50;;;8.50;99.90;;;;;;4973004;28;20199;-85
2023/12/24 03:14:02;;;;;;;0.40;0.30;;;8.50;99.90;;;;;;4974295;28;20450;-82
2023/12/24 03:16:28;;;;;;;0.40;0.30;;;8.50;99.90;;;;;;5002515;28;20234;-82
2023/12/24 03:18:53;;;;;;;0.30;0.30;;;8.40;99.90;;;;;;4987180;28;20199;-81
2023/12/24 03:21:19;;;;;;;0.40;0.30;;;8.40;99.90;;;;;;4959501;28;20653;-83
2023/12/24 03:23:44;;;;;;;0.30;0.30;;;8.30;99.90;;;;;;4965402;28;20198;-82
2023/12/24 03:26:23;;;;;;;0.40;0.30;;;8.30;99.90;;;;;;4979301;28;21386;-83
2023/12/24 03:28:50;;;;;;;1.95;0.73;;;8.30;99.90;;;;;;4969864;28;20199;-87
2023/12/24 03:31:16;;;;;;;0.80;0.40;;;8.40;99.90;;;;;;4986915;28;20207;-83
2023/12/24 03:33:42;;;;;;;1.05;0.45;;;8.30;99.90;;;;;;4997384;28;20191;-87
2023/12/24 03:36:09;;;;;;;0.87;0.30;;;8.40;99.90;;;;;;4967880;28;20229;-86
2023/12/24 03:38:34;;;;;;;0.50;0.50;;;8.40;99.90;;;;;;4970118;28;20889;-86
2023/12/24 03:41:00;;;;;;;0.50;0.30;;;8.40;99.90;;;;;;4988753;28;20221;-82
2023/12/24 03:43:25;;;;;;;0.40;0.40;;;8.50;99.90;;;;;;4960536;28;20199;-85
2023/12/24 03:45:51;;;;;;;0.73;0.50;;;8.50;99.90;;;;;;4973472;28;20202;-82
2023/12/24 03:48:16;;;;;;;0.40;0.30;;;8.50;99.90;;;;;;4979706;28;20214;-85
2023/12/24 03:50:43;;;;;;;1.00;0.50;;;8.60;99.90;;;;;;4984551;28;20751;-86
2023/12/24 03:53:09;;;;;;;0.70;0.55;;;8.60;99.90;;;;;;4964829;28;20187;-88
2023/12/24 03:55:35;;;;;;;1.98;0.80;;;;;;;;;;4999937;28;20198;-86
2023/12/24 03:58:01;;;;;;;0.50;0.50;;;8.70;99.90;;;;;;4971975;28;20259;-81
2023/12/24 04:00:26;;;;;;;0.50;0.50;;;8.80;99.90;;;;;;4977867;28;21014;-83
2023/12/24 04:02:54;;;;;;;0.93;0.67;;;8.80;99.90;;;;;;4961019;28;20219;-85
2023/12/24 04:05:19;;;;;;;0.40;0.30;;;8.80;99.90;;;;;;4972725;28;20207;-80
2023/12/24 04:07:45;;;;;;;0.57;0.50;;;8.90;99.90;;;;;;4996146;28;20203;-80
2023/12/24 04:10:11;;;;;;;0.60;0.40;;;8.90;99.90;;;;;;4983920;28;20218;-87
2023/12/24 04:12:37;;;;;;;0.60;0.40;;;8.90;99.90;;;;;;4981809;28;20219;-88
2023/12/24 04:15:04;;;;;;;0.40;0.40;;;8.90;99.90;;;;;;4984593;28;20196;-82
2023/12/24 04:17:30;;;;;;;0.70;0.50;;;8.90;99.90;;;;;;4987096;28;20211;-84
2023/12/24 04:19:55;;;;;;;0.40;0.30;;;9.00;99.90;;;;;;4980186;28;20211;-81
2023/12/24 04:22:21;;;;;;;0.53;0.50;;;8.90;99.90;;;;;;4986686;28;20279;-78
2023/12/24 04:24:46;;;;;;;0.53;0.43;;;8.90;99.90;;;;;;4989548;28;20202;-83
2023/12/24 04:27:12;;;;;;;0.50;0.50;;;8.90;99.90;;;;;;4986455;28;20971;-84
2023/12/24 04:29:37;;;;;;;0.30;0.30;;;8.90;99.90;;;;;;4984209;28;20222;-84
2023/12/24 04:32:03;;;;;;;0.80;0.37;;;8.90;99.90;;;;;;4992989;28;20207;-85
2023/12/24 04:34:30;;;;;;;0.40;0.37;;;8.90;99.90;;;;;;4994758;28;20193;-85
2023/12/24 04:36:56;;;;;;;0.40;0.30;;;8.90;99.90;;;;;;4977694;28;20275;-85
2023/12/24 04:39:21;;;;;;;0.60;0.57;;;8.90;99.90;;;;;;4965768;28;20284;-87
2023/12/24 04:41:47;;;;;;;0.63;0.63;;;8.90;99.90;;;;;;4973375;28;20560;-86
2023/12/24 04:44:12;;;;;;;1.57;0.70;;;8.80;99.90;;;;;;4981125;28;20578;-84
2023/12/24 04:46:45;;;;;;;0.50;0.40;;;8.70;99.90;;;;;;4981100;28;20226;-81
2023/12/24 04:49:10;;;;;;;4.47;0.60;;;8.80;99.90;;;;;;4990439;28;20202;-84
2023/12/24 04:51:36;;;;;;;0.50;0.37;;;8.80;99.90;;;;;;4982758;28;20204;-82
2023/12/24 04:54:03;;;;;;;0.90;0.47;;;8.80;99.90;;;;;;4981604;28;20209;-86
2023/12/24 04:56:29;;;;;;;1.50;1.30;;;8.80;99.90;;;;;;4966548;28;20226;-84
2023/12/24 04:58:56;;;;;;;0.70;0.40;;;8.80;99.90;;;;;;4984500;28;20198;-87
2023/12/24 05:01:22;;;;;;;0.40;0.30;;;8.70;99.90;;;;;;4949783;28;20547;-86
2023/12/24 05:03:48;;;;;;;0.60;0.60;;;8.70;99.90;;;;;;4975683;28;20553;-87
2023/12/24 05:06:13;;;;;;;1.27;0.60;;;8.70;99.90;;;;;;4974657;28;20198;-83
2023/12/24 05:08:42;;;;;;;1.07;0.50;;;8.60;99.90;;;;;;4974494;28;20194;-82
2023/12/24 05:11:08;;;;;;;0.57;0.57;;;8.60;99.90;;;;;;4971638;28;20923;-85
2023/12/24 05:13:35;;;;;;;1.15;0.30;;;8.60;99.90;;;;;;4981570;28;20693;-80
2023/12/24 05:16:05;;;;;;;0.50;0.30;;;8.60;99.90;;;;;;4993647;28;20933;-85
2023/12/24 05:18:31;;;;;;;0.60;0.50;;;8.50;99.90;;;;;;4967018;28;20220;-84
2023/12/24 05:20:57;;;;;;;0.75;0.40;;;8.50;99.90;;;;;;4978142;28;20275;-86
2023/12/24 05:23:25;;;;;;;0.40;0.37;;;8.50;99.90;;;;;;4975664;28;20196;-84
2023/12/24 05:25:50;;;;;;;2.50;0.43;;;8.50;99.90;;;;;;4988305;28;20195;-85
2023/12/24 05:28:17;;;;;;;0.30;0.30;;;8.50;99.90;;;;;;4978102;28;20267;-84
2023/12/24 05:30:43;;;;;;;0.32;0.28;;;8.50;99.90;;;;;;4988962;28;20275;-82
2023/12/24 05:33:09;;;;;;;0.40;0.30;;;8.50;99.90;;;;;;4968092;28;20214;-82
2023/12/24 05:35:34;;;;;;;0.50;0.40;;;8.50;99.90;;;;;;4981967;28;20179;-84
2023/12/24 05:38:00;;;;;;;0.40;0.30;;;8.50;99.90;;;;;;4970280;28;20244;-81
2023/12/24 05:40:25;;;;;;;0.70;0.40;;;8.50;99.90;;;;;;4983990;28;21829;-86
2023/12/24 05:42:51;;;;;;;0.60;0.30;;;;;;;;;;4972780;28;20184;-85
2023/12/24 05:45:17;;;;;;;0.40;0.30;;;8.60;99.90;;;;;;4997272;28;20748;-84
2023/12/24 05:47:42;;;;;;;0.50;0.50;;;8.60;99.90;;;;;;4979758;28;20529;-86
2023/12/24 05:50:09;;;;;;;0.43;0.37;;;8.60;99.90;;;;;;4984532;28;20222;-84
2023/12/24 05:52:35;;;;;;;0.40;0.35;;;8.60;99.90;;;;;;4965994;28;20223;-81
2023/12/24 05:55:01;;;;;;;0.30;0.30;;;8.60;99.90;;;;;;4982522;28;20195;-83
2023/12/24 05:57:27;;;;;;;0.40;0.30;;;8.70;99.90;;;;;;4981067;28;20315;-83
2023/12/24 05:59:52;;;;;;;0.40;0.40;;;8.70;99.90;;;;;;4953162;28;20215;-83
2023/12/24 06:02:18;;;;;;;0.40;0.30;;;8.70;99.90;;;;;;4966026;28;20339;-86
2023/12/24 06:04:44;;;;;;;0.30;0.20;;;8.70;99.90;;;;;;4980838;28;20220;-82
2023/12/24 06:07:09;;;;;;;0.50;0.33;;;8.70;99.90;;;;;;4996474;28;21359;-87
2023/12/24 06:09:35;;;;;;;0.90;0.90;;;;;;;;;;4965001;28;20211;-83
2023/12/24 06:12:01;;;;;;;0.47;0.37;;;8.90;99.90;;;;;;4974166;28;20195;-82
2023/12/24 06:14:27;;;;;;;0.60;0.52;;;8.90;99.90;;;;;;4974424;28;20485;-87
2023/12/24 06:16:52;;;;;;;0.40;0.30;;;9.00;99.90;;;;;;4989916;28;20309;-85
2023/12/24 06:19:18;;;;;;;0.30;0.20;;;9.10;99.90;;;;;;4983267;28;20194;-86
2023/12/24 06:21:44;;;;;;;0.30;0.30;;;9.20;99.90;;;;;;4991462;28;20187;-83
2023/12/24 06:24:09;;;;;;;0.30;0.30;;;8.70;99.90;;;;;;4985953;28;20207;-86
2023/12/24 06:26:35;;;;;;;0.40;0.30;;;9.20;99.90;;;;;;4968045;28;20194;-84
2023/12/24 06:29:00;;;;;;;0.30;0.20;;;9.10;99.90;;;;;;4986455;28;20194;-84
2023/12/24 06:31:26;;;;;;;0.40;0.30;;;9.10;99.90;;;;;;4965923;28;20696;-84
2023/12/24 06:33:51;;;;;;;0.40;0.30;;;9.00;99.90;;;;;;4968592;28;20794;-85
2023/12/24 06:36:17;;;;;;;0.70;0.40;;;9.00;99.90;;;;;;4971519;28;20253;-82
2023/12/24 06:38:44;;;;;;;0.82;0.30;;;9.10;99.90;;;;;;4980011;28;20202;-80
2023/12/24 06:41:10;;;;;;;1.25;0.30;;;9.10;99.90;;;;;;4982807;28;20218;-82
2023/12/24 06:43:37;;;;;;;0.40;0.20;;;9.10;99.90;;;;;;4981708;28;20186;-84
2023/12/24 06:46:03;;;;;;;0.40;0.38;;;9.10;99.90;;;;;;4980164;28;20689;-85
2023/12/24 06:48:28;;;;;;;0.60;0.60;;;9.10;99.90;;;;;;4959370;28;20270;-85
2023/12/24 06:50:54;;;;;;;1.27;0.77;;;9.10;99.90;;;;;;4983573;28;20215;-84
2023/12/24 06:53:19;;;;;;;0.40;0.30;;;9.10;99.90;;;;;;4949662;28;20740;-84
2023/12/24 06:55:45;;;;;;;0.30;0.30;;;9.20;99.90;;;;;;4963202;28;20330;-88
2023/12/24 06:58:10;;;;;;;0.50;0.40;;;9.20;99.90;;;;;;4972370;28;20270;-85
2023/12/24 07:00:36;;;;;;;0.57;0.30;;;9.10;99.90;;;;;;4951692;28;20322;-85
2023/12/24 07:03:01;;;;;;;0.30;0.30;;;9.10;99.90;;;;;;4978434;28;20184;-85
2023/12/24 07:05:34;;;;;;;0.40;0.30;;;9.00;99.90;;;;;;4976088;28;20200;-83
2023/12/24 07:07:59;;;;;;;0.30;0.30;;;9.00;99.90;;;;;;4961958;28;20191;-86
2023/12/24 07:10:25;;;;;;;0.50;0.30;;;9.00;99.90;;;;;;4973801;28;20273;-84
2023/12/24 07:12:51;;;;;;;0.40;0.30;;;8.90;99.90;;;;;;4973923;28;20214;-85
2023/12/24 07:15:17;;;;;;;0.80;0.30;;;8.90;99.90;;;;;;4968291;28;20344;-82
2023/12/24 07:17:42;;;;;;;0.60;0.60;;;8.90;99.90;;;;;;4964163;28;20214;-87
2023/12/24 07:20:08;;;;;;;0.67;0.43;;;8.90;99.90;;;;;;4961554;28;20218;-84
2023/12/24 07:22:34;;;;;;;0.47;0.47;;;8.90;99.90;;;;;;4977919;28;20175;-83
2023/12/24 07:24:59;;;;;;;0.40;0.40;;;8.90;99.90;;;;;;4979057;28;20736;-88
2023/12/24 07:27:25;;;;;;;0.60;0.47;;;8.90;99.90;;;;;;4974810;28;20679;-85
2023/12/24 07:29:50;;;;;;;0.30;0.30;;;8.90;99.90;;;;;;4970222;28;20259;-83
2023/12/24 07:32:16;;;;;;;0.63;0.33;;;8.90;99.90;;;;;;4986032;28;20267;-86
2023/12/24 07:34:42;;;;;;;0.40;0.30;;;8.90;99.90;;;;;;4975138;28;20187;-85
2023/12/24 07:37:07;;;;;;;0.30;0.30;;;8.90;99.90;;;;;;4978915;28;20462;-84
2023/12/24 07:39:33;;;;;;;0.40;0.30;;;8.90;99.90;;;;;;4967925;28;20214;-83
2023/12/24 07:41:59;;;;;;;0.30;0.30;;;9.00;99.90;;;;;;4955557;28;21234;-86
2023/12/24 07:44:24;;;;;;;0.40;0.40;;;9.00;99.90;;;;;;4963179;28;20445;-85
2023/12/24 07:46:52;;;;;;;0.40;0.40;;;;;;;;;;4987528;28;20202;-83
2023/12/24 07:49:17;;;;;;;0.90;0.50;;;9.00;99.90;;;;;;4990880;28;20222;-84
2023/12/24 07:51:43;;;;;;;0.60;0.60;;;9.00;99.90;;;;;;4973703;28;20400;-84
2023/12/24 07:54:08;;;;;;;0.30;0.30;;;9.10;99.90;;;;;;4969575;28;20180;-86
2023/12/24 07:56:34;;;;;;;0.30;0.30;;;9.10;99.90;;;;;;4975738;28;20240;-84
2023/12/24 07:58:59;;;;;;;0.40;0.40;;;9.10;99.90;;;;;;4971082;28;21210;-86
2023/12/24 08:01:25;;;;;;;0.40;0.40;;;9.10;99.90;;;;;;4961198;28;20215;-85
2023/12/24 08:03:50;;;;;;;0.50;0.40;;;9.80;99.90;;;;;;4971263;28;20704;-86
2023/12/24 08:06:18;;;;;;;0.40;0.30;;;9.30;99.90;;;;;;4978523;28;20259;-86
2023/12/24 08:08:44;;;;;;;0.40;0.30;;;9.30;99.90;;;;;;4977420;28;20803;-84
2023/12/24 08:11:10;;;;;;;0.70;0.40;;;9.30;99.90;;;;;;4975256;28;20218;-82
2023/12/24 08:13:36;;;;;;;0.40;0.30;;;9.40;99.90;;;;;;4973260;28;20183;-85
2023/12/24 08:16:02;;;;;;;0.50;0.47;;;9.40;99.90;;;;;;4974607;28;20202;-85
2023/12/24 08:18:27;;;;;;;0.40;0.30;;;9.40;99.90;;;;;;4968966;28;20186;-81
2023/12/24 08:20:53;;;;;;;0.40;0.30;;;9.40;99.90;;;;;;4964345;28;20380;-83
2023/12/24 08:23:18;;;;;;;0.37;0.30;;;9.50;99.90;;;;;;4971580;28;20675;-85
2023/12/24 08:25:45;;;;;;;0.40;0.40;;;9.50;99.90;;;;;;4970221;28;20184;-85
2023/12/24 08:28:12;;;;;;;0.40;0.30;;;9.50;99.90;;;;;;4969514;28;20241;-85
2023/12/24 08:30:39;;;;;;;0.98;0.30;;;9.60;99.90;;;;;;4979918;28;20210;-85
2023/12/24 08:33:06;;;;;;;0.50;0.40;;;9.60;99.90;;;;;;5007327;28;20665;-89
2023/12/24 08:35:33;;;;;;;0.40;0.30;;;9.60;99.90;;;;;;4964310;28;20207;-82
2023/12/24 08:37:59;;;;;;;0.40;0.30;;;9.60;99.90;;;;;;4964748;28;20332;-84
2023/12/24 08:40:27;;;;;;;0.40;0.30;;;9.60;99.90;;;;;;4962820;28;20721;-84
2023/12/24 08:42:55;;;;;;;0.30;0.20;;;9.50;99.90;;;;;;4967058;28;20280;-84
2023/12/24 08:45:24;;;;;;;0.55;0.30;;;9.60;99.90;;;;;;4967957;28;20197;-88
2023/12/24 08:47:49;;;;;;;0.75;0.30;;;9.60;99.90;;;;;;4949905;28;20203;-86
2023/12/24 08:50:16;;;;;;;0.77;0.30;;;9.50;99.90;;;;;;4969406;28;20931;-87
2023/12/24 08:52:41;;;;;;;0.50;0.40;;;9.50;99.90;;;;;;4967198;28;20195;-86
2023/12/24 08:55:07;;;;;;;0.30;0.20;;;9.50;99.90;;;;;;4957048;28;20225;-85
2023/12/24 08:57:33;;;;;;;0.40;0.30;;;9.50;99.90;;;;;;4983237;28;21215;-85
2023/12/24 08:59:58;;;;;;;41.17;1.23;;;9.40;99.90;;;;;;4980410;28;20469;-82
2023/12/24 09:02:24;;;;;;;0.40;0.30;;;9.30;99.90;;;;;;4982165;28;20409;-84
2023/12/24 09:04:49;;;;;;;0.40;0.30;;;9.30;99.90;;;;;;4956587;28;20752;-82
2023/12/24 09:07:16;;;;;;;0.30;0.30;;;9.30;99.90;;;;;;4964290;28;20196;-85
2023/12/24 09:09:42;;;;;;;0.32;0.30;;;9.30;99.90;;;;;;4971599;28;20207;-85
2023/12/24 09:12:08;;;;;;;0.40;0.30;;;9.30;99.90;;;;;;4971772;28;21238;-90
2023/12/24 09:14:34;;;;;;;0.63;0.63;;;;;;;;;;4960391;28;21006;-84
2023/12/24 09:16:59;;;;;;;0.40;0.40;;;9.30;99.90;;;;;;4976980;28;20303;-86
2023/12/24 09:19:25;;;;;;;0.37;0.30;;;9.30;99.90;;;;;;4956377;28;20514;-82
2023/12/24 09:21:50;;;;;;;1.47;0.40;;;9.20;99.90;;;;;;4960295;28;20223;-85
2023/12/24 09:24:16;;;;;;;0.40;0.30;;;9.20;99.90;;;;;;4979697;28;21034;-82
2023/12/24 09:26:42;;;;;;;0.30;0.20;;;9.30;99.90;;;;;;4957470;28;20197;-83
2023/12/24 09:29:07;;;;;;;0.30;0.20;;;9.20;99.90;;;;;;4980564;28;20199;-81
2023/12/24 09:31:33;;;;;;;0.90;0.30;;;9.30;99.90;;;;;;4977407;28;21600;-83
2023/12/24 09:33:59;;;;;;;0.40;0.30;;;9.20;99.90;;;;;;4962683;28;20195;-83
2023/12/24 09:36:25;;;;;;;0.30;0.20;;;9.20;99.90;;;;;;4981919;28;20207;-86
2023/12/24 09:38:51;;;;;;;0.30;0.20;;;10.80;99.90;;;;;;4973676;28;20209;-85
2023/12/24 09:41:18;;;;;;;0.30;0.20;;;9.30;99.90;;;;;;4970247;28;20222;-86
2023/12/24 09:43:43;;;;;;;0.30;0.20;;;9.30;99.90;;;;;;4967777;28;20593;-84
2023/12/24 09:46:09;;;;;;;0.40;0.20;;;;;;;;;;4972942;28;20229;-84
2023/12/24 09:48:35;;;;;;;0.30;0.30;;;9.30;99.90;;;;;;4998655;28;20230;-89
2023/12/24 09:51:06;;;;;;;0.30;0.30;;;9.40;99.90;;;;;;4978363;28;20471;-83
2023/12/24 09:53:32;;;;;;;0.30;0.20;;;9.30;99.90;;;;;;4981903;28;20194;-86
2023/12/24 09:55:58;;;;;;;0.40;0.40;;;9.30;99.90;;;;;;4982969;28;20222;-84
2023/12/24 09:58:24;;;;;;;0.40;0.30;;;9.30;99.90;;;;;;4988358;28;20244;-86
2023/12/24 10:00:49;;;;;;;0.30;0.30;;;9.30;99.90;;;;;;4973243;28;20219;-87
2023/12/24 10:03:15;;;;;;;0.40;0.30;;;9.30;99.90;;;;;;4973273;28;20222;-83
2023/12/24 10:06:07;;;;;;;0.80;0.30;;;9.20;99.90;;;;;;4984578;28;20240;-84
2023/12/24 10:08:34;;;;;;;0.30;0.20;;;9.30;99.90;;;;;;4958349;28;20191;-86
2023/12/24 10:11:25;;;;;;;0.30;0.20;;;9.30;99.90;;;;;;4977080;28;20211;-84
2023/12/24 10:13:59;;;;;;;0.30;0.30;;;9.30;99.90;;;;;;4970015;28;20199;-87
2023/12/24 10:16:29;;;;;;;3.50;0.40;;;9.30;99.90;;;;;;4982036;28;20205;-88
2023/12/24 10:18:58;;;;;;;0.30;0.30;;;9.30;99.90;;;;;;4991511;28;20192;-86
2023/12/24 10:21:25;;;;;;;0.50;0.30;;;9.30;99.90;;;;;;4982893;28;20241;-88
2023/12/24 10:27:46;;;;;;;0.30;0.30;;;9.40;99.90;;;;;;4988625;28;20194;-89
2023/12/24 10:30:29;;;;;;;1.20;0.35;;;9.50;99.90;;;;;;4995968;28;20692;-89
2023/12/24 10:33:21;;;;;;;0.30;0.20;;;9.50;99.90;;;;;;4982296;28;20329;-86
2023/12/24 10:37:03;;;;;;;0.30;0.20;;;9.60;99.90;;;;;;4989882;28;20159;-84
2023/12/24 10:40:16;;;;;;;7.07;0.60;;;9.70;99.90;;;;;;4990409;28;20326;-88
2023/12/24 10:54:31;;;;;;;0.80;0.35;;;9.90;99.90;;;;;;4989324;28;20202;-89
2023/12/24 10:57:34;;;;;;;1.20;0.68;;;10.00;99.90;;;;;;4990849;28;20218;-87
2023/12/24 11:07:18;;;;;;;;;;;;;;;;;;;;;
2023/12/24 11:14:27;;;;;;;;;;;;;;;;;;;;;
2023/12/24 11:16:58;;;;;;;0.30;0.20;;;10.20;99.90;;;;;;4931532;28;21132;-88
2023/12/24 11:22:25;;;;;;;0.30;0.20;;;10.20;99.90;;;;;;5003593;22;21167;-84
2023/12/24 11:25:17;;;;;;;0.50;0.40;;;10.20;99.90;;;;;;4989735;28;20203;-85
2023/12/24 11:27:52;;;;;;;1.05;0.30;;;10.30;99.90;;;;;;4985329;28;20191;-85
2023/12/24 11:30:18;;;;;;;0.40;0.30;;;10.30;99.90;;;;;;4971995;28;20707;-85
2023/12/24 11:32:43;;;;;;;0.40;0.30;;;10.40;99.90;;;;;;4972209;28;20215;-84
2023/12/24 11:35:48;;;;;;;0.30;0.20;;;10.40;99.90;;;;;;5006188;23;20332;-83
2023/12/24 11:38:35;;;;;;;0.45;0.28;;;10.40;99.90;;;;;;5011226;28;20665;-86
2023/12/24 11:41:14;;;;;;;0.68;0.50;;;10.50;99.90;;;;;;5013846;28;20178;-88
2023/12/24 11:43:42;;;;;;;0.30;0.20;;;10.50;99.90;;;;;;5001132;28;20207;-86
2023/12/24 11:46:11;;;;;;;0.35;0.25;;;10.70;99.90;;;;;;5005529;28;20183;-88
2023/12/24 11:48:37;;;;;;;0.32;0.28;;;;;;;;;;4991750;28;20190;-83
2023/12/24 11:51:08;;;;;;;0.40;0.30;;;10.90;99.90;;;;;;4987739;28;20187;-83
2023/12/24 11:53:35;;;;;;;0.40;0.30;;;10.90;99.90;;;;;;4977437;28;20461;-83
2023/12/24 11:56:07;;;;;;;0.40;0.20;;;11.00;99.90;;;;;;4978440;28;20435;-83
2023/12/24 11:58:32;;;;;;;1.08;0.35;;;11.00;99.90;;;;;;5011135;28;20430;-83
2023/12/24 12:01:00;;;;;;;0.70;0.30;;;10.90;99.90;;;;;;4981992;28;20195;-82
2023/12/24 12:03:25;;;;;;;0.40;0.30;;;10.80;99.90;;;;;;4981045;28;20685;-83
2023/12/24 12:05:51;;;;;;;0.80;0.30;;;10.90;99.90;;;;;;4976849;28;20196;-83
2023/12/24 12:08:16;;;;;;;0.40;0.20;;;10.80;99.90;;;;;;4996706;28;20205;-82
2023/12/24 12:10:42;;;;;;;0.40;0.30;;;10.80;99.90;;;;;;4994988;28;20218;-83
2023/12/24 12:13:07;;;;;;;0.40;0.40;;;10.80;99.90;;;;;;4978778;28;20546;-83
2023/12/24 12:15:33;;;;;;;0.40;0.30;;;10.80;99.90;;;;;;4999412;28;20187;-83
2023/12/24 12:17:59;;;;;;;0.40;0.30;;;10.70;99.90;;;;;;4980593;28;20718;-83
2023/12/24 12:20:25;;;;;;;0.30;0.20;;;10.70;99.90;;;;;;4991658;28;20434;-83
2023/12/24 12:22:51;;;;;;;0.40;0.40;;;10.70;99.90;;;;;;4992755;28;20663;-83
2023/12/24 12:25:17;;;;;;;0.33;0.23;;;10.70;99.90;;;;;;4995165;28;20199;-82
2023/12/24 12:27:42;;;;;;;0.40;0.20;;;10.70;99.90;;;;;;4977406;28;20175;-84
2023/12/24 12:30:08;;;;;;;0.40;0.20;;;10.60;99.90;;;;;;4997927;28;20404;-83
2023/12/24 12:32:37;;;;;;;0.40;0.30;;;10.60;99.90;;;;;;4997430;28;20597;-82
2023/12/24 12:35:03;;;;;;;0.30;0.20;;;10.60;99.90;;;;;;4993997;28;20221;-84
2023/12/24 12:37:28;;;;;;;0.63;0.30;;;10.60;99.90;;;;;;4993842;28;20210;-83
2023/12/24 12:39:54;;;;;;;0.30;0.20;;;10.60;99.90;;;;;;4996720;28;20179;-83
2023/12/24 12:42:21;;;;;;;0.53;0.37;;;10.70;99.90;;;;;;4982300;28;20187;-83
2023/12/24 12:44:46;;;;;;;0.40;0.20;;;10.70;99.90;;;;;;4996725;28;20250;-82
2023/12/24 12:47:13;;;;;;;0.38;0.20;;;10.70;99.90;;;;;;4985648;28;20184;-82
2023/12/24 12:49:41;;;;;;;0.30;0.20;;;10.70;99.90;;;;;;4997010;28;20825;-82
2023/12/24 12:52:10;;;;;;;0.30;0.20;;;10.60;99.90;;;;;;5008289;28;20209;-81
2023/12/24 12:54:36;;;;;;;0.40;0.20;;;10.60;99.90;;;;;;4991688;28;20218;-82
2023/12/24 12:57:02;;;;;;;0.50;0.30;;;10.60;99.90;;;;;;4977542;28;20187;-82
2023/12/24 12:59:28;;;;;;;0.30;0.20;;;10.60;99.90;;;;;;4993694;28;20411;-83
2023/12/24 13:01:58;;;;;;;0.40;0.20;;;10.50;99.90;;;;;;4997930;28;20366;-83
2023/12/24 13:04:25;;;;;;;0.40;0.30;;;10.50;99.90;;;;;;4995617;28;20450;-82
2023/12/24 13:06:59;;;;;;;0.40;0.20;;;10.50;99.90;;;;;;4992051;28;20203;-84
2023/12/24 13:09:25;;;;;;;0.40;0.20;;;10.50;99.90;;;;;;5001004;28;20691;-83
2023/12/24 13:12:06;;;;;;;0.90;0.33;;;10.60;99.90;;;;;;4996258;28;20278;-84
2023/12/24 13:14:35;;;;;;;0.60;0.30;;;10.50;99.90;;;;;;4986978;28;20481;-84
2023/12/24 13:17:08;;;;;;;0.30;0.30;;;10.60;99.90;;;;;;4995496;28;20213;-84
2023/12/24 13:19:35;;;;;;;0.52;0.43;;;10.50;99.90;;;;;;4998475;28;20171;-83
2023/12/24 13:22:02;;;;;;;0.40;0.20;;;10.50;99.90;;;;;;4998520;28;20524;-83
2023/12/24 13:24:28;;;;;;;0.40;0.30;;;10.50;99.90;;;;;;4996172;28;20199;-83
2023/12/24 13:26:54;;;;;;;0.40;0.20;;;10.50;99.90;;;;;;4995062;28;20298;-83
2023/12/24 13:29:20;;;;;;;3.80;0.30;;;10.50;99.90;;;;;;4994911;28;20645;-83
2023/12/24 13:31:45;;;;;;;0.50;0.30;;;10.50;99.90;;;;;;4995685;28;20270;-82